Romayor, Texas
Current Conditions -  °F | °C
As of 2:55 PM on Friday 31 Oct 2014 (Local Time) from K6R3 Reporting Station
Clear Clear  
Wind Chill: 75°   Ceiling: Unl
Heat Index: 75°   Visibility: 10mi
Dew Point: 46°   Wind: 9mph
Humidity: 35%   Direction: 360°N
Pressure: 30.16"   Gusts: 17mph
Location:  30.45°N, 94.84°W
Report Text: K6R3 311955Z AUTO 36008G15KT 340V040 10SM CLR 24/08 A3016 RMK AO2 T02410076
Loading
Personal Weather Stations






























Interactive Weather Map
Tropical Storm Tracking
New forecast layout! Learn more

10-Day Weather Forecast

Advertisements
Track Severe Weather on mobile